createdAt,value
2017-08-25T00:00:42.051Z,7.00
2017-08-25T00:03:09.729Z,7.00
2017-08-25T00:05:37.514Z,6.63
2017-08-25T00:08:05.148Z,6.77
2017-08-25T00:10:32.779Z,6.20
2017-08-25T00:13:00.362Z,6.77
2017-08-25T00:15:28.017Z,7.37
2017-08-25T00:17:55.634Z,6.43
2017-08-25T00:20:23.213Z,7.07
2017-08-25T00:22:50.984Z,7.30
2017-08-25T00:25:18.678Z,6.73
2017-08-25T00:27:46.288Z,6.70
2017-08-25T00:30:13.933Z,6.73
2017-08-25T00:32:41.580Z,7.30
2017-08-25T00:35:09.192Z,7.17
2017-08-25T00:37:36.828Z,6.97
2017-08-25T00:40:04.490Z,7.20
2017-08-25T00:42:32.096Z,7.00
2017-08-25T00:44:59.679Z,6.53
2017-08-25T00:47:27.417Z,7.03
2017-08-25T00:49:55.012Z,7.90
2017-08-25T00:52:22.608Z,7.77
2017-08-25T00:54:50.291Z,7.47
2017-08-25T00:57:17.936Z,7.47
2017-08-25T00:59:45.594Z,8.10
2017-08-25T01:02:13.187Z,7.60
2017-08-25T01:04:40.840Z,7.33
2017-08-25T01:07:08.477Z,8.20
2017-08-25T01:09:36.143Z,7.97
2017-08-25T01:12:03.826Z,7.60
2017-08-25T01:14:31.435Z,7.83
2017-08-25T01:16:59.109Z,7.90
2017-08-25T01:19:26.870Z,6.57
2017-08-25T01:21:54.460Z,8.17
2017-08-25T01:24:22.090Z,9.03
2017-08-25T01:26:49.756Z,9.10
2017-08-25T01:29:17.439Z,6.93
2017-08-25T01:31:45.083Z,7.30
2017-08-25T01:34:12.691Z,7.47
2017-08-25T01:36:40.332Z,8.17
2017-08-25T01:39:07.983Z,7.87
2017-08-25T01:41:35.721Z,7.83
2017-08-25T01:44:03.528Z,8.33
2017-08-25T01:46:31.193Z,8.67
2017-08-25T01:48:58.841Z,8.80
2017-08-25T01:51:26.515Z,7.70
2017-08-25T01:53:54.195Z,8.23
2017-08-25T01:56:21.828Z,8.93
2017-08-25T01:58:49.507Z,8.13
2017-08-25T02:01:17.215Z,8.90
2017-08-25T02:03:44.830Z,8.17
2017-08-25T02:06:12.468Z,8.70
2017-08-25T02:08:40.192Z,10.70
2017-08-25T02:11:07.810Z,9.43
2017-08-25T02:13:35.401Z,7.93
2017-08-25T02:16:03.120Z,8.90
2017-08-25T02:18:30.777Z,8.77
2017-08-25T02:20:58.420Z,9.80
2017-08-25T02:23:26.085Z,9.00
2017-08-25T02:25:53.846Z,9.20
2017-08-25T02:28:21.495Z,8.67
2017-08-25T02:30:49.102Z,8.37
2017-08-25T02:33:16.763Z,9.77
2017-08-25T02:35:44.403Z,8.60
2017-08-25T02:38:12.000Z,9.27
2017-08-25T02:40:39.643Z,8.50
2017-08-25T02:43:07.269Z,8.90
2017-08-25T02:45:34.886Z,8.67
2017-08-25T02:48:02.603Z,8.67
2017-08-25T02:50:30.268Z,8.80
2017-08-25T02:52:57.861Z,8.90
2017-08-25T02:55:25.455Z,8.97
2017-08-25T02:57:53.112Z,9.30
2017-08-25T03:00:20.710Z,9.70
2017-08-25T03:02:48.337Z,9.63
2017-08-25T03:05:15.968Z,9.50
2017-08-25T03:07:43.589Z,9.03
2017-08-25T03:10:11.228Z,9.63
2017-08-25T03:12:38.864Z,8.80
2017-08-25T03:15:06.444Z,8.80
2017-08-25T03:17:34.041Z,8.40
2017-08-25T03:20:01.629Z,8.60
2017-08-25T03:22:29.291Z,9.13
2017-08-25T03:24:56.899Z,8.80
2017-08-25T03:27:24.511Z,8.53
2017-08-25T03:29:52.868Z,7.90
2017-08-25T03:32:21.232Z,7.60
2017-08-25T03:34:48.829Z,8.80
2017-08-25T03:37:16.489Z,8.23
2017-08-25T03:39:44.066Z,8.53
2017-08-25T03:42:11.656Z,7.87
2017-08-25T03:44:39.273Z,9.00
2017-08-25T03:47:06.949Z,8.33
2017-08-25T03:49:34.580Z,9.30
2017-08-25T03:52:02.383Z,8.57
2017-08-25T03:54:30.129Z,9.00
2017-08-25T03:56:57.797Z,9.33
2017-08-25T03:59:25.399Z,9.50
2017-08-25T04:01:53.011Z,9.57
2017-08-25T04:04:20.651Z,8.77
2017-08-25T04:06:48.282Z,9.30
2017-08-25T04:09:15.928Z,8.30
2017-08-25T04:11:43.512Z,8.30
2017-08-25T04:14:11.122Z,8.03
2017-08-25T04:16:39.321Z,8.90
2017-08-25T04:19:07.014Z,8.20
2017-08-25T04:21:34.596Z,8.40
2017-08-25T04:24:02.205Z,8.90
2017-08-25T04:26:35.142Z,9.13
2017-08-25T04:29:03.006Z,8.63
2017-08-25T04:31:30.611Z,8.73
2017-08-25T04:33:58.323Z,8.67
2017-08-25T04:36:25.936Z,8.70
2017-08-25T04:38:53.543Z,8.53
2017-08-25T04:41:21.229Z,8.80
2017-08-25T04:43:48.827Z,8.67
2017-08-25T04:46:17.237Z,7.87
2017-08-25T04:48:44.897Z,8.80
2017-08-25T04:51:12.523Z,7.77
2017-08-25T04:53:40.223Z,8.93
2017-08-25T04:56:07.941Z,9.10
2017-08-25T04:58:35.540Z,9.17
2017-08-25T05:01:03.146Z,8.63
2017-08-25T05:03:30.728Z,8.50
2017-08-25T05:05:58.382Z,8.87
2017-08-25T05:08:25.983Z,9.40
2017-08-25T05:10:53.590Z,8.57
2017-08-25T05:13:21.207Z,7.77
2017-08-25T05:15:48.813Z,8.50
2017-08-25T05:18:16.371Z,8.37
2017-08-25T05:20:44.004Z,8.80
2017-08-25T05:23:11.638Z,9.00
2017-08-25T05:25:39.225Z,8.50
2017-08-25T05:28:06.873Z,8.50
2017-08-25T05:30:34.480Z,8.43
2017-08-25T05:33:02.139Z,7.93
2017-08-25T05:35:29.751Z,7.77
2017-08-25T05:37:57.379Z,7.73
2017-08-25T05:40:25.052Z,7.97
2017-08-25T05:42:52.732Z,8.27
2017-08-25T05:45:20.334Z,7.90
2017-08-25T05:47:47.955Z,7.10
2017-08-25T05:50:15.583Z,7.80
2017-08-25T05:52:43.271Z,8.20
2017-08-25T05:55:10.867Z,8.50
2017-08-25T05:57:38.483Z,9.07
2017-08-25T06:00:06.075Z,9.10
2017-08-25T06:02:33.697Z,10.17
2017-08-25T06:05:01.334Z,8.40
2017-08-25T06:07:28.946Z,9.53
2017-08-25T06:09:56.603Z,8.10
2017-08-25T06:12:24.247Z,8.80
2017-08-25T06:14:52.430Z,8.00
2017-08-25T06:17:20.038Z,9.93
2017-08-25T06:19:47.691Z,8.77
2017-08-25T06:22:23.188Z,8.50
2017-08-25T06:24:50.813Z,7.40
2017-08-25T06:27:18.420Z,8.07
2017-08-25T06:29:46.018Z,7.70
2017-08-25T06:32:13.649Z,6.80
2017-08-25T06:34:41.288Z,7.23
2017-08-25T06:37:08.966Z,7.10
2017-08-25T06:39:36.618Z,6.70
2017-08-25T06:42:04.219Z,7.53
2017-08-25T06:44:31.835Z,7.20
2017-08-25T06:46:59.445Z,8.03
2017-08-25T06:49:27.084Z,7.73
2017-08-25T06:51:54.721Z,7.50
2017-08-25T06:54:22.392Z,7.57
2017-08-25T06:56:50.068Z,7.43
2017-08-25T06:59:17.662Z,7.70
2017-08-25T07:01:45.307Z,8.97
2017-08-25T07:04:12.919Z,8.00
2017-08-25T07:06:40.520Z,7.43
2017-08-25T07:09:08.205Z,7.70
2017-08-25T07:11:35.820Z,7.30
2017-08-25T07:14:03.455Z,7.17
2017-08-25T07:16:31.102Z,7.37
2017-08-25T07:18:58.748Z,6.70
2017-08-25T07:21:26.353Z,7.40
2017-08-25T07:23:54.035Z,6.83
2017-08-25T07:26:21.617Z,6.40
2017-08-25T07:28:49.238Z,6.77
2017-08-25T07:31:16.882Z,6.33
2017-08-25T07:33:44.562Z,6.30
2017-08-25T07:36:12.145Z,6.80
2017-08-25T07:38:39.981Z,7.27
2017-08-25T07:41:07.751Z,7.40
2017-08-25T07:43:35.319Z,6.90
2017-08-25T07:46:02.904Z,7.90
2017-08-25T07:48:30.525Z,7.57
2017-08-25T07:50:58.127Z,7.40
2017-08-25T07:53:25.716Z,8.37
2017-08-25T07:55:53.408Z,7.10
2017-08-25T07:58:21.022Z,7.17
2017-08-25T08:00:48.626Z,7.10
2017-08-25T08:03:16.315Z,7.70
2017-08-25T08:05:43.949Z,7.33
2017-08-25T08:08:11.646Z,7.27
2017-08-25T08:10:39.282Z,6.57
2017-08-25T08:13:06.908Z,6.20
2017-08-25T08:15:34.520Z,6.00
2017-08-25T08:18:02.214Z,6.60
2017-08-25T08:20:29.881Z,7.03
2017-08-25T08:22:57.510Z,6.17
2017-08-25T08:25:25.153Z,5.60
2017-08-25T08:27:52.780Z,6.40
2017-08-25T08:30:20.454Z,5.50
2017-08-25T08:32:48.125Z,5.87
2017-08-25T08:35:15.738Z,5.37
2017-08-25T08:37:43.359Z,6.07
2017-08-25T08:40:11.003Z,6.90
2017-08-25T08:42:38.597Z,6.63
2017-08-25T08:45:06.239Z,6.33
2017-08-25T08:47:33.889Z,6.93
2017-08-25T08:50:01.497Z,5.70
2017-08-25T08:52:29.116Z,5.40
2017-08-25T08:54:56.692Z,6.10
2017-08-25T08:57:24.292Z,6.40
2017-08-25T08:59:51.924Z,5.53
2017-08-25T09:02:21.902Z,5.13
2017-08-25T09:04:49.629Z,5.57
2017-08-25T09:07:17.246Z,5.67
2017-08-25T09:09:44.873Z,5.73
2017-08-25T09:12:12.571Z,6.03
2017-08-25T09:14:40.196Z,5.27
2017-08-25T09:17:07.815Z,5.20
2017-08-25T09:19:35.579Z,6.53
2017-08-25T09:22:03.186Z,5.33
2017-08-25T09:24:30.765Z,5.97
2017-08-25T09:26:58.484Z,5.27
2017-08-25T09:29:26.144Z,5.00
2017-08-25T09:31:53.787Z,5.00
2017-08-25T09:34:21.493Z,5.17
2017-08-25T09:36:49.092Z,5.50
2017-08-25T09:39:16.745Z,5.57
2017-08-25T09:41:44.401Z,4.40
2017-08-25T09:44:12.063Z,5.22
2017-08-25T09:46:39.685Z,5.15
2017-08-25T09:49:07.280Z,4.90
2017-08-25T09:51:34.892Z,4.30
2017-08-25T09:54:02.547Z,5.32
2017-08-25T09:56:30.202Z,4.43
2017-08-25T09:58:57.819Z,4.97
2017-08-25T10:01:25.524Z,4.00
2017-08-25T10:03:53.145Z,4.33
2017-08-25T10:06:21.494Z,4.50
2017-08-25T10:08:49.715Z,4.80
2017-08-25T10:11:17.656Z,5.70
2017-08-25T10:13:45.313Z,5.67
2017-08-25T10:16:12.921Z,4.43
2017-08-25T10:18:40.561Z,4.30
2017-08-25T10:21:08.161Z,5.17
2017-08-25T10:23:36.682Z,4.93
2017-08-25T10:26:04.335Z,4.63
2017-08-25T10:28:32.990Z,5.20
2017-08-25T10:31:00.737Z,4.13
2017-08-25T10:33:40.156Z,4.63
2017-08-25T10:36:19.416Z,5.37
2017-08-25T10:38:58.752Z,5.00
2017-08-25T10:41:38.008Z,5.50
2017-08-25T10:44:17.406Z,5.73
2017-08-25T10:46:45.038Z,4.87
2017-08-25T10:49:12.627Z,6.83
2017-08-25T10:51:40.244Z,6.00
2017-08-25T10:54:07.872Z,6.03
2017-08-25T10:56:35.486Z,6.00
2017-08-25T10:59:03.140Z,5.70
2017-08-25T11:01:30.796Z,5.63
2017-08-25T11:03:58.491Z,6.10
2017-08-25T11:06:26.126Z,5.67
2017-08-25T11:08:53.802Z,5.10
2017-08-25T11:11:21.417Z,5.83
2017-08-25T11:13:49.039Z,6.33
2017-08-25T11:16:16.675Z,5.67
2017-08-25T11:18:44.358Z,4.73
2017-08-25T11:21:11.978Z,4.90
2017-08-25T11:23:39.568Z,5.80
2017-08-25T11:26:07.198Z,5.40
2017-08-25T11:28:34.788Z,5.40
2017-08-25T11:31:02.457Z,5.57
2017-08-25T11:33:30.106Z,5.27
2017-08-25T11:35:57.715Z,5.57
2017-08-25T11:38:25.341Z,5.50
2017-08-25T11:40:52.934Z,6.30
2017-08-25T11:43:20.533Z,6.47
2017-08-25T11:45:48.140Z,6.20
2017-08-25T11:48:15.773Z,6.10
2017-08-25T11:50:43.407Z,8.70
2017-08-25T11:53:11.015Z,6.70
2017-08-25T11:55:38.632Z,6.77
2017-08-25T11:58:06.307Z,6.30
2017-08-25T12:00:33.907Z,6.27
2017-08-25T12:03:01.516Z,5.83
2017-08-25T12:05:29.116Z,7.10
2017-08-25T12:07:56.726Z,6.63
2017-08-25T12:10:24.332Z,6.40
2017-08-25T12:12:51.951Z,6.00
2017-08-25T12:15:19.551Z,7.43
2017-08-25T12:17:47.150Z,6.13
2017-08-25T12:20:14.756Z,6.10
2017-08-25T12:22:42.472Z,6.10
2017-08-25T12:25:10.063Z,5.53
2017-08-25T12:27:37.679Z,5.20
2017-08-25T12:30:05.266Z,6.30
2017-08-25T12:32:32.887Z,5.80
2017-08-25T12:35:00.566Z,5.80
2017-08-25T12:37:28.208Z,6.70
2017-08-25T12:39:55.805Z,5.50
2017-08-25T12:42:23.434Z,4.80
2017-08-25T12:44:51.086Z,4.70
2017-08-25T12:47:18.716Z,5.43
2017-08-25T12:49:46.350Z,5.03
2017-08-25T12:52:13.941Z,4.50
2017-08-25T12:54:41.660Z,4.30
2017-08-25T12:57:09.278Z,5.33
2017-08-25T12:59:36.973Z,5.03
2017-08-25T13:02:04.599Z,5.20
2017-08-25T13:04:32.974Z,5.50
2017-08-25T13:07:00.560Z,6.53
2017-08-25T13:09:28.212Z,5.10
2017-08-25T13:11:55.858Z,5.63
2017-08-25T13:14:23.500Z,5.30
2017-08-25T13:16:51.161Z,4.93
2017-08-25T13:19:18.821Z,5.10
2017-08-25T13:21:46.423Z,5.70
2017-08-25T13:24:14.016Z,4.80
2017-08-25T13:26:41.747Z,5.10
2017-08-25T13:29:09.377Z,4.83
2017-08-25T13:31:37.004Z,4.83
2017-08-25T13:34:04.706Z,4.80
2017-08-25T13:36:32.302Z,4.40
2017-08-25T13:38:59.895Z,4.73
2017-08-25T13:41:27.519Z,5.20
2017-08-25T13:43:55.129Z,4.40
2017-08-25T13:46:22.718Z,4.50
2017-08-25T13:48:50.329Z,4.37
2017-08-25T13:51:17.986Z,4.30
2017-08-25T13:53:45.575Z,4.83
2017-08-25T13:56:13.198Z,4.67
2017-08-25T13:58:40.847Z,4.33
2017-08-25T14:01:08.510Z,3.50
2017-08-25T14:03:36.095Z,4.67
2017-08-25T14:06:03.692Z,3.50
2017-08-25T14:08:31.354Z,4.60
2017-08-25T14:10:58.976Z,4.00
2017-08-25T14:13:26.563Z,3.60
2017-08-25T14:15:54.333Z,4.83
2017-08-25T14:18:21.964Z,3.63
2017-08-25T14:20:49.574Z,3.90
2017-08-25T14:23:17.276Z,4.40
2017-08-25T14:25:44.872Z,3.60
2017-08-25T14:28:12.475Z,3.90
2017-08-25T14:30:40.123Z,4.50
2017-08-25T14:33:07.830Z,4.17
2017-08-25T14:35:35.467Z,4.37
2017-08-25T14:38:03.074Z,4.10
2017-08-25T14:40:30.685Z,4.23
2017-08-25T14:42:58.279Z,4.80
2017-08-25T14:45:26.038Z,5.00
2017-08-25T14:47:53.678Z,4.67
2017-08-25T14:50:21.276Z,4.20
2017-08-25T14:52:48.881Z,4.30
2017-08-25T14:55:16.486Z,4.17
2017-08-25T14:57:44.090Z,4.90
2017-08-25T15:00:11.725Z,4.37
2017-08-25T15:02:39.375Z,4.30
2017-08-25T15:05:07.018Z,4.50
2017-08-25T15:07:34.589Z,4.50
2017-08-25T15:10:02.203Z,3.90
2017-08-25T15:12:29.825Z,4.07
2017-08-25T15:14:57.424Z,4.47
2017-08-25T15:17:25.172Z,3.90
2017-08-25T15:19:52.834Z,4.10
2017-08-25T15:22:20.428Z,3.60
2017-08-25T15:24:48.094Z,4.20
2017-08-25T15:27:15.777Z,4.43
2017-08-25T15:29:43.421Z,4.23
2017-08-25T15:32:11.047Z,4.27
2017-08-25T15:34:38.651Z,4.20
2017-08-25T15:37:06.289Z,4.73
2017-08-25T15:39:33.893Z,5.40
2017-08-25T15:42:01.477Z,4.93
2017-08-25T15:44:29.159Z,5.00
2017-08-25T15:46:56.737Z,5.10
2017-08-25T15:49:24.345Z,5.23
2017-08-25T15:51:52.029Z,4.73
2017-08-25T15:54:19.650Z,5.00
2017-08-25T15:56:47.240Z,5.40
2017-08-25T15:59:14.956Z,5.00
2017-08-25T16:01:42.560Z,5.30
2017-08-25T16:04:10.205Z,5.50
2017-08-25T16:06:37.784Z,4.50
2017-08-25T16:09:05.438Z,4.83
2017-08-25T16:11:33.002Z,4.83
2017-08-25T16:14:00.633Z,5.70
2017-08-25T16:16:28.230Z,5.90
2017-08-25T16:18:55.809Z,5.10
2017-08-25T16:21:23.425Z,5.27
2017-08-25T16:23:51.154Z,4.97
2017-08-25T16:26:18.748Z,4.80
2017-08-25T16:28:46.414Z,4.33
2017-08-25T16:31:14.098Z,4.00
2017-08-25T16:33:41.797Z,4.17
2017-08-25T16:36:09.508Z,4.60
2017-08-25T16:38:37.165Z,4.93
2017-08-25T16:41:04.792Z,4.00
2017-08-25T16:43:32.434Z,3.97
2017-08-25T16:46:00.017Z,5.10
2017-08-25T16:48:27.646Z,4.20
2017-08-25T16:50:55.307Z,4.10
2017-08-25T16:53:22.893Z,4.50
2017-08-25T16:55:50.527Z,4.87
2017-08-25T16:58:18.132Z,4.90
2017-08-25T17:00:45.768Z,4.87
2017-08-25T17:03:13.409Z,4.30
2017-08-25T17:05:41.093Z,3.70
2017-08-25T17:08:08.729Z,3.97
2017-08-25T17:10:36.332Z,4.70
2017-08-25T17:13:04.158Z,5.10
2017-08-25T17:15:31.849Z,4.53
2017-08-25T17:17:59.446Z,4.80
2017-08-25T17:20:27.052Z,5.37
2017-08-25T17:22:57.409Z,5.67
2017-08-25T17:25:25.091Z,5.60
2017-08-25T17:27:52.939Z,6.43
2017-08-25T17:30:20.587Z,5.47
2017-08-25T17:32:49.280Z,5.80
2017-08-25T17:35:16.902Z,6.80
2017-08-25T17:37:44.519Z,7.30
2017-08-25T17:40:12.083Z,6.60
2017-08-25T17:42:39.712Z,7.90
2017-08-25T17:45:07.461Z,6.20
2017-08-25T17:47:35.526Z,6.13
2017-08-25T17:50:03.221Z,5.30
2017-08-25T17:52:30.915Z,5.50
2017-08-25T17:54:58.485Z,5.40
2017-08-25T17:57:26.077Z,5.57
2017-08-25T17:59:53.709Z,5.53
2017-08-25T18:04:46.062Z,8.43
2017-08-25T18:07:13.669Z,6.30
2017-08-25T18:09:41.239Z,5.53
2017-08-25T18:12:08.848Z,6.40
2017-08-25T18:14:36.444Z,5.63
2017-08-25T18:17:04.084Z,5.80
2017-08-25T18:19:31.738Z,5.80
2017-08-25T18:21:59.811Z,5.90
2017-08-25T18:24:27.586Z,7.00
2017-08-25T18:27:00.475Z,5.27
2017-08-25T18:29:29.433Z,5.03
2017-08-25T18:32:02.376Z,4.87
2017-08-25T18:34:31.788Z,5.10
2017-08-25T18:36:59.376Z,5.30
2017-08-25T18:39:26.992Z,4.97
2017-08-25T18:41:54.576Z,5.00
2017-08-25T18:44:34.682Z,5.03
2017-08-25T18:47:02.316Z,4.90
2017-08-25T18:49:30.024Z,5.10
2017-08-25T18:51:58.992Z,5.60
2017-08-25T18:54:26.634Z,5.60
2017-08-25T18:56:54.287Z,5.13
2017-08-25T18:59:21.929Z,5.50
2017-08-25T19:01:49.499Z,4.93
2017-08-25T19:04:17.102Z,5.30
2017-08-25T19:06:44.734Z,5.60
2017-08-25T19:09:12.348Z,5.30
2017-08-25T19:11:40.071Z,5.47
2017-08-25T19:14:07.818Z,5.47
2017-08-25T19:16:35.404Z,5.40
2017-08-25T19:19:03.003Z,5.23
2017-08-25T19:21:30.633Z,5.40
2017-08-25T19:23:58.265Z,5.27
2017-08-25T19:26:26.167Z,5.47
2017-08-25T19:28:54.724Z,4.57
2017-08-25T19:31:22.434Z,6.10
2017-08-25T19:33:50.104Z,5.70
2017-08-25T19:36:17.712Z,5.87
2017-08-25T19:38:45.437Z,5.60
2017-08-25T19:41:13.051Z,6.40
2017-08-25T19:43:40.773Z,5.97
2017-08-25T19:46:08.418Z,5.67
2017-08-25T19:48:36.059Z,6.60
2017-08-25T19:51:03.657Z,5.40
2017-08-25T19:53:31.358Z,6.23
2017-08-25T19:55:59.051Z,5.70
2017-08-25T19:58:29.781Z,6.13
2017-08-25T20:00:57.683Z,6.07
2017-08-25T20:03:25.337Z,6.60
2017-08-25T20:05:53.074Z,6.27
2017-08-25T20:08:20.721Z,6.43
2017-08-25T20:10:48.338Z,6.07
2017-08-25T20:13:15.929Z,6.37
2017-08-25T20:15:43.816Z,6.13
2017-08-25T20:18:11.475Z,7.50
2017-08-25T20:20:39.076Z,6.00
2017-08-25T20:23:06.709Z,6.20
2017-08-25T20:25:34.313Z,6.00
2017-08-25T20:28:01.961Z,6.60
2017-08-25T20:30:30.622Z,6.03
2017-08-25T20:32:58.376Z,6.00
2017-08-25T20:35:25.986Z,6.23
2017-08-25T20:37:53.586Z,7.20
2017-08-25T20:40:21.212Z,6.43
2017-08-25T20:42:48.806Z,6.87
2017-08-25T20:45:16.419Z,6.80
2017-08-25T20:47:44.142Z,8.50
2017-08-25T20:50:14.910Z,7.07
2017-08-25T20:52:42.641Z,7.10
2017-08-25T20:55:10.219Z,8.03
2017-08-25T20:57:37.819Z,7.10
2017-08-25T21:00:05.448Z,7.73
2017-08-25T21:02:33.032Z,6.70
2017-08-25T21:05:00.641Z,7.60
2017-08-25T21:07:29.383Z,7.50
2017-08-25T21:09:56.975Z,7.60
2017-08-25T21:12:24.577Z,7.83
2017-08-25T21:14:52.201Z,7.67
2017-08-25T21:17:19.780Z,7.00
2017-08-25T21:19:47.377Z,7.30
2017-08-25T21:22:15.002Z,7.40
2017-08-25T21:24:42.732Z,8.00
2017-08-25T21:27:13.361Z,6.87
2017-08-25T21:29:41.063Z,8.07
2017-08-25T21:32:09.520Z,7.83
2017-08-25T21:34:37.132Z,7.60
2017-08-25T21:37:04.763Z,7.13
2017-08-25T21:39:32.363Z,8.07
2017-08-25T21:42:08.222Z,9.07
2017-08-25T21:44:35.841Z,8.03
2017-08-25T21:47:03.500Z,8.93
2017-08-25T21:49:31.128Z,11.27
2017-08-25T21:51:58.873Z,9.80
2017-08-25T21:54:32.405Z,9.80
2017-08-25T21:56:59.994Z,9.63
2017-08-25T21:59:27.686Z,8.50
2017-08-25T22:01:55.343Z,9.20
2017-08-25T22:04:22.989Z,8.50
2017-08-25T22:06:50.637Z,8.37
2017-08-25T22:09:19.330Z,9.30
2017-08-25T22:11:46.908Z,9.30
2017-08-25T22:14:14.628Z,9.87
2017-08-25T22:16:42.434Z,9.17
2017-08-25T22:19:10.025Z,8.63
2017-08-25T22:21:37.612Z,8.50
2017-08-25T22:24:05.304Z,8.37
2017-08-25T22:26:32.903Z,8.10
2017-08-25T22:29:00.475Z,8.80
2017-08-25T22:31:28.173Z,8.30
2017-08-25T22:33:55.748Z,7.33
2017-08-25T22:36:23.452Z,7.60
2017-08-25T22:38:51.064Z,7.20
2017-08-25T22:41:19.472Z,8.00
2017-08-25T22:43:47.192Z,7.50
2017-08-25T22:46:14.805Z,8.07
2017-08-25T22:48:48.414Z,7.73
2017-08-25T22:51:16.121Z,7.50
2017-08-25T22:53:43.742Z,8.20
2017-08-25T22:56:11.371Z,10.77
2017-08-25T22:58:39.123Z,11.40
2017-08-25T23:01:06.874Z,15.37
2017-08-25T23:03:34.502Z,12.70
2017-08-25T23:06:02.174Z,11.27
2017-08-25T23:08:29.840Z,11.13
2017-08-25T23:10:57.545Z,10.07
2017-08-25T23:13:25.260Z,10.10
2017-08-25T23:15:52.950Z,9.10
2017-08-25T23:18:20.550Z,9.27
2017-08-25T23:20:48.135Z,8.63
2017-08-25T23:23:15.917Z,8.70
2017-08-25T23:25:44.544Z,8.87
2017-08-25T23:28:12.133Z,8.30
2017-08-25T23:30:45.734Z,8.37
2017-08-25T23:33:13.302Z,8.17
2017-08-25T23:35:43.805Z,8.63
2017-08-25T23:38:11.406Z,8.63
2017-08-25T23:40:39.003Z,8.77
2017-08-25T23:43:06.727Z,7.90
2017-08-25T23:45:34.321Z,9.40
2017-08-25T23:48:01.920Z,8.17
2017-08-25T23:50:29.514Z,8.30
2017-08-25T23:53:00.387Z,8.53
2017-08-25T23:55:27.989Z,7.33
2017-08-25T23:57:55.559Z,8.03
